createdAt,value
2017-10-22T00:01:57.819Z,94984.51
2017-10-22T00:04:25.131Z,94981.69
2017-10-22T00:06:52.381Z,94985.28
2017-10-22T00:09:20.547Z,94987.38
2017-10-22T00:11:49.191Z,94987.19
2017-10-22T00:14:16.396Z,94981.88
2017-10-22T00:16:43.632Z,94985.69
2017-10-22T00:19:10.823Z,94980.77
2017-10-22T00:21:37.972Z,94971.11
2017-10-22T00:24:05.207Z,94976.03
2017-10-22T00:26:32.422Z,94981.55
2017-10-22T00:28:59.648Z,94978.31
2017-10-22T00:31:26.852Z,94983.43
2017-10-22T00:33:54.391Z,94984.55
2017-10-22T00:36:21.553Z,94982.67
2017-10-22T00:38:48.754Z,94975.88
2017-10-22T00:41:15.923Z,94969.42
2017-10-22T00:43:43.127Z,94971.34
2017-10-22T00:46:10.327Z,94982.51
2017-10-22T00:48:37.582Z,94987.42
2017-10-22T00:51:04.835Z,94984.61
2017-10-22T00:53:31.993Z,94983.66
2017-10-22T00:55:59.343Z,94976.28
2017-10-22T00:58:26.528Z,94982.34
2017-10-22T01:08:33.374Z,94985.01
2017-10-22T01:11:00.688Z,94983.13
2017-10-22T01:13:27.857Z,94977.45
2017-10-22T01:15:55.176Z,94979.93
2017-10-22T01:18:22.359Z,94980.11
2017-10-22T01:20:49.707Z,94980.70
2017-10-22T01:23:16.922Z,94979.38
2017-10-22T01:25:44.327Z,94973.88
2017-10-22T01:28:11.555Z,94973.70
2017-10-22T01:30:38.752Z,94972.95
2017-10-22T01:33:05.942Z,94971.06
2017-10-22T01:35:33.204Z,94970.33
2017-10-22T01:38:00.417Z,94964.84
2017-10-22T01:40:28.605Z,94962.78
2017-10-22T02:08:31.154Z,94948.25
2017-10-22T02:16:05.071Z,94949.41
2017-10-22T02:18:32.278Z,94953.20
2017-10-22T02:20:59.588Z,94959.84
2017-10-22T02:23:26.820Z,94949.80
2017-10-22T02:25:54.128Z,94944.50
2017-10-22T02:28:21.305Z,94947.16
2017-10-22T02:30:48.532Z,94947.36
2017-10-22T02:33:15.790Z,94944.33
2017-10-22T03:21:53.727Z,94965.43
2017-10-22T03:24:20.952Z,94961.81
2017-10-22T03:26:48.167Z,94963.13
2017-10-22T03:29:15.362Z,94970.34
2017-10-22T03:31:42.577Z,94970.53
2017-10-22T03:34:09.770Z,94969.80
2017-10-22T03:36:37.055Z,94975.45
2017-10-22T03:39:04.210Z,94972.83
2017-10-22T03:41:31.469Z,94972.83
2017-10-22T03:43:58.655Z,94978.48
2017-10-22T03:46:25.861Z,94973.56
2017-10-22T03:48:53.139Z,94985.14
2017-10-22T03:51:20.382Z,94976.44
2017-10-22T03:53:47.649Z,94979.30
2017-10-22T03:56:14.875Z,94985.91
2017-10-22T03:58:42.219Z,94975.50
2017-10-22T04:01:09.384Z,94979.69
2017-10-22T04:03:36.668Z,94978.16
2017-10-22T04:06:03.944Z,94977.21
2017-10-22T04:08:31.143Z,94982.12
2017-10-22T04:10:58.346Z,94985.37
2017-10-22T04:23:56.684Z,94979.70
2017-10-22T04:26:31.969Z,94983.50
2017-10-22T04:34:19.450Z,94983.50
2017-10-22T04:36:46.683Z,94976.13
2017-10-22T04:39:13.850Z,94981.25
2017-10-22T04:41:41.063Z,94973.09
2017-10-22T04:44:08.347Z,94981.62
2017-10-22T04:46:37.083Z,94978.22
2017-10-22T04:49:04.372Z,94979.37
2017-10-22T04:51:31.538Z,94983.34
2017-10-22T04:53:58.755Z,94994.28
2017-10-22T04:56:25.988Z,94992.23
2017-10-22T04:58:53.144Z,94986.55
2017-10-22T05:04:15.237Z,94995.26
2017-10-22T05:06:42.413Z,94993.17
2017-10-22T05:09:09.604Z,94986.94
2017-10-22T05:11:36.741Z,94988.81
2017-10-22T05:14:03.987Z,94983.90
2017-10-22T05:16:31.281Z,94984.45
2017-10-22T05:18:58.495Z,94988.81
2017-10-22T05:21:25.699Z,94985.60
2017-10-22T05:23:52.942Z,94991.83
2017-10-22T05:26:20.123Z,95000.71
2017-10-22T05:28:47.387Z,95000.50
2017-10-22T05:31:14.568Z,94997.08
2017-10-22T05:33:41.751Z,94992.93
2017-10-22T05:36:08.943Z,94993.28
2017-10-22T05:38:36.143Z,95001.05
2017-10-22T05:43:45.749Z,95008.77
2017-10-22T05:46:12.950Z,95006.84
2017-10-22T05:48:40.140Z,95008.37
2017-10-22T05:51:07.348Z,95012.89
2017-10-22T05:53:34.537Z,95018.53
2017-10-22T05:56:01.703Z,95012.45
2017-10-22T05:58:28.926Z,95018.50
2017-10-22T06:00:56.099Z,95015.79
2017-10-22T06:03:23.324Z,95017.50
2017-10-22T06:05:50.523Z,95021.40
2017-10-22T06:08:17.739Z,95023.05
2017-10-22T06:10:44.961Z,95028.19
2017-10-22T06:13:12.193Z,95033.09
2017-10-22T06:15:39.356Z,95038.77
2017-10-22T06:18:06.565Z,95041.21
2017-10-22T06:20:33.717Z,95039.66
2017-10-22T06:23:00.907Z,95037.00
2017-10-22T06:25:28.110Z,95034.17
2017-10-22T06:27:55.269Z,95029.25
2017-10-22T06:30:22.472Z,95030.92
2017-10-22T06:32:49.639Z,95032.63
2017-10-22T06:35:16.796Z,95031.86
2017-10-22T06:37:44.089Z,95028.09
2017-10-22T06:40:11.244Z,95029.20
2017-10-22T06:42:38.408Z,95031.84
2017-10-22T06:45:05.618Z,95031.45
2017-10-22T06:47:32.796Z,95031.27
2017-10-22T06:50:00.114Z,95026.70
2017-10-22T06:52:27.370Z,95034.42
2017-10-22T06:54:54.577Z,95032.33
2017-10-22T06:57:21.827Z,95034.02
2017-10-22T06:59:49.012Z,95032.81
2017-10-22T07:02:16.205Z,95035.82
2017-10-22T07:04:43.376Z,95038.62
2017-10-22T07:07:10.573Z,95038.56
2017-10-22T07:09:37.775Z,95035.49
2017-10-22T07:12:04.957Z,95037.73
2017-10-22T07:14:32.174Z,95038.06
2017-10-22T07:16:59.343Z,95036.15
2017-10-22T07:19:26.516Z,95036.47
2017-10-22T07:21:53.847Z,95031.70
2017-10-22T07:24:21.052Z,95029.75
2017-10-22T07:26:48.268Z,95039.41
2017-10-22T07:29:15.498Z,95036.15
2017-10-22T07:31:42.692Z,95026.66
2017-10-22T07:34:09.867Z,95032.13
2017-10-22T07:36:37.101Z,95032.11
2017-10-22T07:39:04.247Z,95034.72
2017-10-22T07:41:31.428Z,95036.39
2017-10-22T07:43:58.711Z,95024.98
2017-10-22T07:46:25.933Z,95023.81
2017-10-22T07:48:53.253Z,95022.47
2017-10-22T07:51:20.417Z,95021.51
2017-10-22T07:53:47.619Z,95015.80
2017-10-22T07:56:14.819Z,95023.95
2017-10-22T07:58:42.014Z,95023.73
2017-10-22T08:01:09.247Z,95019.56
2017-10-22T08:03:36.482Z,95017.41
2017-10-22T08:06:03.700Z,95017.59
2017-10-22T08:08:30.882Z,95016.98
2017-10-22T08:10:58.092Z,95016.59
2017-10-22T08:13:25.316Z,95013.16
2017-10-22T08:15:52.548Z,95018.67
2017-10-22T08:18:19.759Z,95011.03
2017-10-22T08:20:46.944Z,95006.88
2017-10-22T08:23:14.140Z,95011.97
2017-10-22T08:25:41.350Z,95011.95
2017-10-22T08:28:08.534Z,95007.97
2017-10-22T08:30:35.867Z,95009.84
2017-10-22T08:33:03.124Z,95004.89
2017-10-22T08:35:30.302Z,94997.47
2017-10-22T08:37:57.495Z,94995.37
2017-10-22T08:40:24.665Z,94994.23
2017-10-22T08:42:51.865Z,94998.00
2017-10-22T08:45:19.108Z,94986.22
2017-10-22T08:47:46.284Z,94991.89
2017-10-22T08:50:13.444Z,94988.27
2017-10-22T08:52:40.673Z,94984.64
2017-10-22T08:55:07.832Z,94981.23
2017-10-22T08:57:34.988Z,94980.45
2017-10-22T09:00:02.241Z,94981.56
2017-10-22T09:02:29.456Z,94972.08
2017-10-22T09:04:56.616Z,94966.37
2017-10-22T09:07:23.841Z,94965.97
2017-10-22T09:09:51.008Z,94964.42
2017-10-22T09:12:18.296Z,94965.73
2017-10-22T09:14:45.469Z,94969.13
2017-10-22T09:17:12.679Z,94960.73
2017-10-22T09:19:39.882Z,94962.65
2017-10-22T09:22:07.078Z,94959.38
2017-10-22T09:24:34.288Z,94954.05
2017-10-22T09:27:01.458Z,94953.07
2017-10-22T09:29:28.646Z,94949.47
2017-10-22T09:31:55.819Z,94947.91
2017-10-22T09:34:23.011Z,94945.63
2017-10-22T09:36:50.201Z,94944.27
2017-10-22T09:41:50.735Z,94934.36
2017-10-22T09:44:17.926Z,94929.42
2017-10-22T09:46:45.160Z,94924.09
2017-10-22T09:49:12.397Z,94922.92
2017-10-22T09:51:39.633Z,94924.80
2017-10-22T09:54:06.804Z,94919.30
2017-10-22T09:56:33.980Z,94915.66
2017-10-22T09:59:01.243Z,94915.83
2017-10-22T10:01:28.447Z,94909.53
2017-10-22T10:03:55.662Z,94903.48
2017-10-22T10:06:22.853Z,94900.61
2017-10-22T10:08:50.208Z,94898.34
2017-10-22T10:11:17.416Z,94894.35
2017-10-22T10:13:44.592Z,94889.95
2017-10-22T10:16:11.791Z,94887.28
2017-10-22T10:18:38.971Z,94881.59
2017-10-22T10:21:06.151Z,94870.02
2017-10-22T10:23:33.334Z,94867.89
2017-10-22T10:26:00.549Z,94869.01
2017-10-22T10:28:27.747Z,94861.41
2017-10-22T10:30:54.913Z,94854.34
2017-10-22T10:33:22.200Z,94853.01
2017-10-22T10:35:49.380Z,94862.09
2017-10-22T10:38:16.576Z,94854.50
2017-10-22T10:40:43.817Z,94855.26
2017-10-22T10:43:11.050Z,94850.86
2017-10-22T10:45:38.224Z,94848.18
2017-10-22T10:48:05.384Z,94837.73
2017-10-22T10:50:32.636Z,94834.48
2017-10-22T10:52:59.886Z,94831.77
2017-10-22T10:55:27.085Z,94827.02
2017-10-22T10:57:54.284Z,94829.49
2017-10-22T11:00:21.508Z,94827.19
2017-10-22T11:02:48.689Z,94823.20
2017-10-22T11:05:15.909Z,94816.72
2017-10-22T11:07:43.117Z,94817.26
2017-10-22T11:10:10.339Z,94813.84
2017-10-22T11:12:37.538Z,94811.53
2017-10-22T11:15:04.695Z,94809.06
2017-10-22T11:17:31.902Z,94797.48
2017-10-22T11:19:59.058Z,94794.03
2017-10-22T11:22:26.217Z,94794.03
2017-10-22T11:24:53.424Z,94788.09
2017-10-22T11:27:20.611Z,94785.97
2017-10-22T11:29:47.844Z,94774.95
2017-10-22T11:32:15.051Z,94773.47
2017-10-22T11:34:42.212Z,94770.20
2017-10-22T11:37:09.459Z,94769.42
2017-10-22T11:39:36.691Z,94766.89
2017-10-22T11:42:03.908Z,94760.62
2017-10-22T11:44:31.063Z,94763.98
2017-10-22T11:46:58.598Z,94759.99
2017-10-22T11:49:27.276Z,94762.08
2017-10-22T11:51:54.453Z,94760.88
2017-10-22T11:54:21.660Z,94752.91
2017-10-22T11:56:48.868Z,94759.14
2017-10-22T11:59:16.148Z,94761.58
2017-10-22T12:01:43.344Z,94761.39
2017-10-22T12:04:10.508Z,94758.51
2017-10-22T12:06:37.838Z,94757.18
2017-10-22T12:09:05.130Z,94757.91
2017-10-22T12:11:32.391Z,94752.59
2017-10-22T12:13:59.605Z,94754.45
2017-10-22T12:16:26.780Z,94747.02
2017-10-22T12:18:53.989Z,94752.75
2017-10-22T12:21:21.184Z,94751.20
2017-10-22T12:23:48.403Z,94756.30
2017-10-22T12:26:15.636Z,94755.34
2017-10-22T12:28:42.836Z,94755.88
2017-10-22T12:31:10.048Z,94751.89
2017-10-22T12:33:37.231Z,94748.60
2017-10-22T12:36:04.382Z,94743.84
2017-10-22T12:38:31.599Z,94741.76
2017-10-22T12:40:58.778Z,94743.79
2017-10-22T12:43:25.968Z,94740.72
2017-10-22T12:45:53.166Z,94740.52
2017-10-22T12:48:20.376Z,94737.10
2017-10-22T12:50:47.559Z,94732.32
2017-10-22T12:53:14.787Z,94731.75
2017-10-22T12:55:41.943Z,94727.51
2017-10-22T12:58:09.189Z,94725.77
2017-10-22T13:00:36.359Z,94726.36
2017-10-22T13:03:03.515Z,94720.79
2017-10-22T13:05:30.740Z,94717.78
2017-10-22T13:07:57.919Z,94710.53
2017-10-22T13:18:07.376Z,94705.63
2017-10-22T13:20:35.075Z,94707.88
2017-10-22T13:23:02.263Z,94701.59
2017-10-22T13:25:29.491Z,94699.89
2017-10-22T13:27:56.699Z,94696.40
2017-10-22T13:30:23.896Z,94696.22
2017-10-22T13:32:51.073Z,94692.83
2017-10-22T13:35:18.286Z,94698.68
2017-10-22T13:37:45.513Z,94698.64
2017-10-22T13:40:12.683Z,94698.46
2017-10-22T13:42:39.885Z,94701.50
2017-10-22T13:45:07.090Z,94701.47
2017-10-22T13:47:34.333Z,94699.18
2017-10-22T13:50:01.612Z,94696.52
2017-10-22T13:52:28.864Z,94698.05
2017-10-22T13:54:56.017Z,94696.14
2017-10-22T13:57:23.172Z,94693.48
2017-10-22T13:59:50.389Z,94694.23
2017-10-22T14:02:17.619Z,94695.95
2017-10-22T14:04:44.785Z,94696.14
2017-10-22T14:07:11.985Z,94693.89
2017-10-22T14:09:39.150Z,94687.05
2017-10-22T14:12:06.356Z,94688.58
2017-10-22T14:14:33.520Z,94691.39
2017-10-22T14:17:00.717Z,94689.11
2017-10-22T14:19:27.895Z,94684.39
2017-10-22T14:21:55.092Z,94681.92
2017-10-22T14:24:22.284Z,94679.84
2017-10-22T14:26:49.520Z,94676.45
2017-10-22T14:29:16.707Z,94677.41
2017-10-22T14:31:43.872Z,94674.17
2017-10-22T14:34:11.089Z,94671.51
2017-10-22T14:36:38.307Z,94669.99
2017-10-22T14:39:05.486Z,94671.13
2017-10-22T14:41:32.700Z,94674.36
2017-10-22T14:43:59.935Z,94671.70
2017-10-22T14:46:27.135Z,94674.94
2017-10-22T14:48:54.328Z,94669.61
2017-10-22T14:51:21.508Z,94666.22
2017-10-22T14:53:48.664Z,94665.27
2017-10-22T14:56:15.867Z,94665.09
2017-10-22T14:58:43.030Z,94656.95
2017-10-22T15:01:10.375Z,94657.52
2017-10-22T15:03:37.581Z,94655.63
2017-10-22T15:06:04.757Z,94663.98
2017-10-22T15:08:31.977Z,94660.82
2017-10-22T15:10:59.134Z,94657.94
2017-10-22T15:13:26.295Z,94654.74
2017-10-22T15:15:53.514Z,94657.20
2017-10-22T15:18:20.668Z,94655.69
2017-10-22T15:20:47.913Z,94653.22
2017-10-22T15:23:15.084Z,94651.13
2017-10-22T15:25:42.415Z,94652.84
2017-10-22T15:28:09.606Z,94649.80
2017-10-22T15:30:36.799Z,94651.16
2017-10-22T15:33:03.951Z,94651.92
2017-10-22T15:35:31.183Z,94652.50
2017-10-22T15:37:58.411Z,94652.34
2017-10-22T15:40:25.620Z,94655.19
2017-10-22T15:42:52.822Z,94648.55
2017-10-22T15:45:19.998Z,94650.09
2017-10-22T15:47:47.188Z,94652.00
2017-10-22T15:50:14.385Z,94649.72
2017-10-22T15:52:41.562Z,94649.94
2017-10-22T15:55:08.806Z,94639.88
2017-10-22T15:57:35.971Z,94642.37
2017-10-22T16:00:03.191Z,94642.56
2017-10-22T16:02:30.352Z,94639.15
2017-10-22T16:04:57.590Z,94641.45
2017-10-22T16:07:24.838Z,94645.27
2017-10-22T16:09:52.007Z,94639.78
2017-10-22T16:12:19.199Z,94643.39
2017-10-22T16:14:46.411Z,94644.95
2017-10-22T16:17:13.572Z,94647.61
2017-10-22T16:19:40.785Z,94651.41
2017-10-22T16:22:07.965Z,94656.38
2017-10-22T16:24:35.150Z,94649.55
2017-10-22T16:27:02.405Z,94654.70
2017-10-22T16:29:29.566Z,94649.77
2017-10-22T16:31:56.748Z,94649.04
2017-10-22T16:34:24.006Z,94650.97
2017-10-22T16:36:51.150Z,94649.83
2017-10-22T16:39:18.322Z,94652.75
2017-10-22T16:41:45.556Z,94647.43
2017-10-22T16:44:12.717Z,94648.54
2017-10-22T16:46:39.952Z,94648.00
2017-10-22T16:49:07.142Z,94648.00
2017-10-22T16:51:34.316Z,94645.34
2017-10-22T16:54:01.537Z,94641.58
2017-10-22T16:56:28.718Z,94647.09
2017-10-22T16:58:55.935Z,94645.22
2017-10-22T17:01:23.129Z,94643.32
2017-10-22T17:03:50.375Z,94645.79
2017-10-22T17:06:17.544Z,94643.73
2017-10-22T17:08:44.745Z,94645.44
2017-10-22T17:11:13.429Z,94643.55
2017-10-22T17:13:40.765Z,94638.07
2017-10-22T17:16:08.043Z,94637.91
2017-10-22T17:18:35.203Z,94630.13
2017-10-22T17:21:02.422Z,94626.74
2017-10-22T17:23:29.633Z,94620.86
2017-10-22T17:25:56.787Z,94622.60
2017-10-22T17:28:23.948Z,94617.51
2017-10-22T17:30:51.143Z,94620.16
2017-10-22T17:33:18.379Z,94620.58
2017-10-22T17:35:45.552Z,94617.92
2017-10-22T17:38:12.790Z,94618.34
2017-10-22T17:40:40.017Z,94612.26
2017-10-22T17:43:07.212Z,94609.25
2017-10-22T17:45:34.413Z,94609.83
2017-10-22T17:48:01.603Z,94614.38
2017-10-22T17:50:28.815Z,94603.59
2017-10-22T17:52:56.023Z,94605.71
2017-10-22T17:55:23.190Z,94603.78
2017-10-22T17:57:50.361Z,94604.58
2017-10-22T18:00:17.606Z,94606.92
2017-10-22T18:02:44.789Z,94604.42
2017-10-22T18:05:12.028Z,94605.21
2017-10-22T18:07:39.231Z,94610.34
2017-10-22T18:10:06.427Z,94606.41
2017-10-22T18:12:33.674Z,94611.55
2017-10-22T18:15:00.892Z,94611.17
2017-10-22T18:17:29.006Z,94607.41
2017-10-22T18:19:56.148Z,94607.81
2017-10-22T18:22:23.402Z,94610.84
2017-10-22T18:24:50.583Z,94605.72
2017-10-22T18:27:17.784Z,94603.86
2017-10-22T18:29:45.015Z,94609.39
2017-10-22T18:32:12.212Z,94605.60
2017-10-22T18:34:39.447Z,94600.28
2017-10-22T18:37:06.670Z,94606.23
2017-10-22T18:39:33.901Z,94600.92
2017-10-22T18:42:01.238Z,94598.45
2017-10-22T18:44:28.477Z,94603.04
2017-10-22T18:46:55.680Z,94601.91
2017-10-22T18:49:22.943Z,94597.57
2017-10-22T18:51:50.162Z,94603.86
2017-10-22T18:54:17.344Z,94603.11
2017-10-22T18:56:44.567Z,94601.02
2017-10-22T18:59:11.870Z,94606.75
2017-10-22T19:01:40.562Z,94602.19
2017-10-22T19:04:07.735Z,94598.43
2017-10-22T19:06:34.992Z,94606.97
2017-10-22T19:09:02.142Z,94605.48
2017-10-22T19:11:29.311Z,94608.14
2017-10-22T19:13:56.605Z,94611.59
2017-10-22T19:16:23.766Z,94607.80
2017-10-22T19:18:50.951Z,94604.22
2017-10-22T19:21:18.151Z,94600.08
2017-10-22T19:23:45.349Z,94608.05
2017-10-22T19:26:12.626Z,94604.63
2017-10-22T19:28:39.789Z,94609.59
2017-10-22T19:31:06.999Z,94608.48
2017-10-22T19:33:34.159Z,94601.69
2017-10-22T19:36:01.367Z,94603.37
2017-10-22T19:38:28.566Z,94597.73
2017-10-22T19:40:55.899Z,94591.92
2017-10-22T19:43:23.063Z,94595.23
2017-10-22T19:45:50.214Z,94594.95
2017-10-22T19:48:18.471Z,94597.36
2017-10-22T19:50:45.674Z,94593.27
2017-10-22T19:53:12.891Z,94584.89
2017-10-22T19:55:40.166Z,94579.89
2017-10-22T19:58:07.343Z,94586.62
2017-10-22T20:00:34.499Z,94583.48
2017-10-22T20:03:01.725Z,94585.69
2017-10-22T20:05:28.954Z,94590.30
2017-10-22T20:07:56.159Z,94595.69
2017-10-22T20:10:23.355Z,94596.09
2017-10-22T20:12:50.575Z,94595.02
2017-10-22T20:15:17.808Z,94591.47
2017-10-22T20:17:45.028Z,94580.34
2017-10-22T20:20:12.198Z,94575.28
2017-10-22T20:22:39.433Z,94571.52
2017-10-22T20:25:07.848Z,94567.22
2017-10-22T20:27:35.067Z,94569.14
2017-10-22T20:30:02.368Z,94564.48
2017-10-22T20:32:29.527Z,94564.11
2017-10-22T20:34:56.754Z,94565.67
2017-10-22T20:37:23.956Z,94558.13
2017-10-22T20:39:51.163Z,94558.91
2017-10-22T20:42:18.367Z,94563.11
2017-10-22T20:44:45.613Z,94560.70
2017-10-22T20:47:12.866Z,94564.14
2017-10-22T20:49:40.045Z,94557.34
2017-10-22T20:52:07.257Z,94559.42
2017-10-22T20:54:34.426Z,94565.14
2017-10-22T20:57:01.674Z,94568.41
2017-10-22T20:59:28.841Z,94568.98
2017-10-22T21:01:56.158Z,94564.46
2017-10-22T21:04:23.323Z,94562.22
2017-10-22T21:06:50.576Z,94568.68
2017-10-22T21:09:17.829Z,94571.90
2017-10-22T21:11:45.063Z,94564.35
2017-10-22T21:14:12.346Z,94566.30
2017-10-22T21:16:39.561Z,94559.86
2017-10-22T21:19:06.756Z,94562.53
2017-10-22T21:21:33.970Z,94564.45
2017-10-22T21:24:01.143Z,94564.27
2017-10-22T21:26:28.516Z,94554.25
2017-10-22T21:28:55.684Z,94545.76
2017-10-22T21:31:22.912Z,94542.91
2017-10-22T21:33:50.084Z,94541.42
2017-10-22T21:36:17.309Z,94537.66
2017-10-22T21:38:44.490Z,94546.38
2017-10-22T21:41:11.720Z,94534.45
2017-10-22T21:43:38.921Z,94534.84
2017-10-22T21:46:06.218Z,94536.39
2017-10-22T21:48:33.375Z,94531.09
2017-10-22T21:51:00.677Z,94529.22
2017-10-22T21:53:27.880Z,94533.39
2017-10-22T21:55:55.062Z,94526.76
2017-10-22T21:58:22.277Z,94534.55
2017-10-22T22:00:49.523Z,94522.89
2017-10-22T22:03:16.713Z,94534.39
2017-10-22T22:05:43.919Z,94530.59
2017-10-22T22:08:11.170Z,94524.92
2017-10-22T22:10:38.379Z,94520.56
2017-10-22T22:13:05.599Z,94516.05
2017-10-22T22:15:32.822Z,94516.27
2017-10-22T22:18:00.092Z,94517.59
2017-10-22T22:20:27.286Z,94510.03
2017-10-22T22:22:54.434Z,94514.20
2017-10-22T22:25:21.666Z,94507.79
2017-10-22T22:27:48.841Z,94504.00
2017-10-22T22:30:16.058Z,94504.98
2017-10-22T22:32:43.244Z,94498.54
2017-10-22T22:35:10.483Z,94497.43
2017-10-22T22:37:37.670Z,94498.19
2017-10-22T22:40:04.928Z,94493.27
2017-10-22T22:42:32.139Z,94485.53
2017-10-22T22:44:59.293Z,94482.50
2017-10-22T22:47:26.707Z,94482.87
2017-10-22T22:49:53.914Z,94480.79
2017-10-22T22:52:21.170Z,94460.91
2017-10-22T22:54:48.369Z,94461.86
2017-10-22T22:57:15.595Z,94451.31
2017-10-22T22:59:42.783Z,94454.31
2017-10-22T23:02:09.939Z,94451.13
2017-10-22T23:04:37.175Z,94448.31
2017-10-22T23:07:04.335Z,94444.33
2017-10-22T23:09:31.559Z,94447.55
2017-10-22T23:11:58.832Z,94446.83
2017-10-22T23:14:26.043Z,94439.59
2017-10-22T23:16:53.303Z,94438.49
2017-10-22T23:19:20.479Z,94438.49
2017-10-22T23:21:47.920Z,94426.56
2017-10-22T23:24:15.080Z,94426.97
2017-10-22T23:26:42.527Z,94427.54
2017-10-22T23:29:09.773Z,94430.03
2017-10-22T23:31:36.951Z,94433.44
2017-10-22T23:34:04.184Z,94427.78
2017-10-22T23:36:31.350Z,94419.70
2017-10-22T23:38:58.529Z,94433.66
2017-10-22T23:41:25.675Z,94425.54
2017-10-22T23:43:52.923Z,94426.33
2017-10-22T23:46:20.163Z,94422.53
2017-10-22T23:48:47.397Z,94422.53
2017-10-22T23:51:14.739Z,94421.81
2017-10-22T23:53:41.904Z,94417.64
2017-10-22T23:56:09.141Z,94429.19
2017-10-22T23:58:36.332Z,94426.00
